Terminal Aerodrome Forecast
Issued by NWS

Home | Current Version | Previous Version | Text Only | Print | Product List | Glossary Off
Versions: 1 2 3 4 5 6 7 8 9 10 11 12 13 14 15 16 17

752
FTUS43 KMPX 092327
TAFRWF
TAF
KRWF 092327Z 1000/1024 32013KT P6SM FEW110
     FM100400 32009KT P6SM SCT250
     FM101100 33004KT P6SM BKN110
     FM101400 04005KT P6SM BKN070
     FM101800 12005KT P6SM OVC035=

USA.gov is the U.S. government's official web portal to all federal, state and local government web resources and services.